sensor_id;sensor_type;location;lat;lon;timestamp;P1;durP1;ratioP1;P2;durP2;ratioP2
47365;SDS011;33105;47.964;7.982;2022-11-25T00:08:40;2.65;;;0.50;;
47365;SDS011;33105;47.964;7.982;2022-11-25T00:17:41;1.85;;;0.45;;
47365;SDS011;33105;47.964;7.982;2022-11-25T03:19:17;6.63;;;0.73;;
47365;SDS011;33105;47.964;7.982;2022-11-25T03:23:12;3.97;;;0.40;;
47365;SDS011;33105;47.964;7.982;2022-11-25T03:26:21;4.20;;;0.45;;
47365;SDS011;33105;47.964;7.982;2022-11-25T03:29:26;3.20;;;0.57;;
47365;SDS011;33105;47.964;7.982;2022-11-25T03:38:49;2.92;;;0.77;;
47365;SDS011;33105;47.964;7.982;2022-11-25T03:41:53;4.18;;;0.93;;
47365;SDS011;33105;47.964;7.982;2022-11-25T03:44:55;3.00;;;0.80;;
47365;SDS011;33105;47.964;7.982;2022-11-25T03:47:58;1.67;;;0.75;;
47365;SDS011;33105;47.964;7.982;2022-11-25T03:51:01;1.90;;;0.60;;
47365;SDS011;33105;47.964;7.982;2022-11-25T03:54:05;2.33;;;0.80;;
47365;SDS011;33105;47.964;7.982;2022-11-25T03:57:23;6.05;;;0.80;;
47365;SDS011;33105;47.964;7.982;2022-11-25T04:00:29;2.45;;;0.80;;
47365;SDS011;33105;47.964;7.982;2022-11-25T04:03:36;3.75;;;1.05;;
47365;SDS011;33105;47.964;7.982;2022-11-25T04:06:40;4.15;;;0.68;;
47365;SDS011;33105;47.964;7.982;2022-11-25T04:10:06;4.13;;;0.65;;
47365;SDS011;33105;47.964;7.982;2022-11-25T04:13:09;2.92;;;0.65;;
47365;SDS011;33105;47.964;7.982;2022-11-25T04:16:21;3.28;;;0.93;;
47365;SDS011;33105;47.964;7.982;2022-11-25T04:19:26;4.82;;;0.80;;
47365;SDS011;33105;47.964;7.982;2022-11-25T04:22:27;4.68;;;0.80;;
47365;SDS011;33105;47.964;7.982;2022-11-25T04:25:29;3.45;;;1.27;;
47365;SDS011;33105;47.964;7.982;2022-11-25T04:28:31;2.65;;;0.60;;
47365;SDS011;33105;47.964;7.982;2022-11-25T04:31:34;3.05;;;0.73;;
47365;SDS011;33105;47.964;7.982;2022-11-25T04:34:37;2.65;;;0.60;;
47365;SDS011;33105;47.964;7.982;2022-11-25T04:37:39;5.45;;;0.73;;
47365;SDS011;33105;47.964;7.982;2022-11-25T04:40:40;1.95;;;0.80;;
47365;SDS011;33105;47.964;7.982;2022-11-25T04:43:52;5.45;;;0.80;;
47365;SDS011;33105;47.964;7.982;2022-11-25T04:46:54;3.40;;;0.57;;
47365;SDS011;33105;47.964;7.982;2022-11-25T04:49:56;4.85;;;0.70;;
47365;SDS011;33105;47.964;7.982;2022-11-25T04:52:59;2.20;;;0.77;;
47365;SDS011;33105;47.964;7.982;2022-11-25T04:56:04;3.75;;;0.90;;
47365;SDS011;33105;47.964;7.982;2022-11-25T04:59:22;5.32;;;0.90;;
47365;SDS011;33105;47.964;7.982;2022-11-25T05:03:07;2.83;;;0.55;;
47365;SDS011;33105;47.964;7.982;2022-11-25T05:06:15;2.35;;;0.77;;
47365;SDS011;33105;47.964;7.982;2022-11-25T05:10:30;3.38;;;0.70;;
47365;SDS011;33105;47.964;7.982;2022-11-25T05:18:24;3.55;;;0.93;;
47365;SDS011;33105;47.964;7.982;2022-11-25T05:21:26;4.78;;;0.70;;
47365;SDS011;33105;47.964;7.982;2022-11-25T05:29:21;6.22;;;1.15;;
47365;SDS011;33105;47.964;7.982;2022-11-25T05:32:24;9.20;;;0.80;;
47365;SDS011;33105;47.964;7.982;2022-11-25T05:35:30;2.88;;;0.77;;
47365;SDS011;33105;47.964;7.982;2022-11-25T05:38:36;3.15;;;1.15;;
47365;SDS011;33105;47.964;7.982;2022-11-25T05:41:39;4.60;;;1.38;;
47365;SDS011;33105;47.964;7.982;2022-11-25T05:44:41;3.95;;;0.90;;
47365;SDS011;33105;47.964;7.982;2022-11-25T05:47:43;4.18;;;1.20;;
47365;SDS011;33105;47.964;7.982;2022-11-25T05:51:47;3.80;;;1.40;;
47365;SDS011;33105;47.964;7.982;2022-11-25T05:54:57;6.57;;;1.38;;
47365;SDS011;33105;47.964;7.982;2022-11-25T05:58:00;5.97;;;1.33;;
47365;SDS011;33105;47.964;7.982;2022-11-25T06:01:07;5.80;;;1.58;;
47365;SDS011;33105;47.964;7.982;2022-11-25T06:04:12;24.73;;;6.57;;
47365;SDS011;33105;47.964;7.982;2022-11-25T06:07:14;7.93;;;1.13;;
47365;SDS011;33105;47.964;7.982;2022-11-25T06:10:20;8.30;;;1.02;;
47365;SDS011;33105;47.964;7.982;2022-11-25T06:13:31;13.55;;;2.92;;
47365;SDS011;33105;47.964;7.982;2022-11-25T06:16:34;5.70;;;1.50;;
47365;SDS011;33105;47.964;7.982;2022-11-25T06:19:48;4.80;;;1.10;;
47365;SDS011;33105;47.964;7.982;2022-11-25T06:22:49;11.32;;;3.70;;
47365;SDS011;33105;47.964;7.982;2022-11-25T06:26:03;5.53;;;1.58;;
47365;SDS011;33105;47.964;7.982;2022-11-25T06:29:09;8.57;;;3.45;;
47365;SDS011;33105;47.964;7.982;2022-11-25T06:32:12;6.15;;;1.40;;
47365;SDS011;33105;47.964;7.982;2022-11-25T06:35:22;8.52;;;1.17;;
47365;SDS011;33105;47.964;7.982;2022-11-25T06:38:37;5.80;;;1.10;;
47365;SDS011;33105;47.964;7.982;2022-11-25T06:41:38;5.95;;;1.58;;
47365;SDS011;33105;47.964;7.982;2022-11-25T06:44:40;8.00;;;1.73;;
47365;SDS011;33105;47.964;7.982;2022-11-25T06:47:41;9.20;;;1.67;;
47365;SDS011;33105;47.964;7.982;2022-11-25T06:50:43;5.43;;;1.30;;
47365;SDS011;33105;47.964;7.982;2022-11-25T06:53:44;5.47;;;1.50;;
47365;SDS011;33105;47.964;7.982;2022-11-25T06:56:46;6.75;;;1.45;;
47365;SDS011;33105;47.964;7.982;2022-11-25T06:59:52;9.60;;;1.17;;
47365;SDS011;33105;47.964;7.982;2022-11-25T07:02:54;9.07;;;2.05;;
47365;SDS011;33105;47.964;7.982;2022-11-25T07:05:56;5.68;;;1.35;;
47365;SDS011;33105;47.964;7.982;2022-11-25T07:08:58;5.20;;;1.27;;
47365;SDS011;33105;47.964;7.982;2022-11-25T07:12:00;8.98;;;1.30;;
47365;SDS011;33105;47.964;7.982;2022-11-25T07:15:02;5.43;;;1.73;;
47365;SDS011;33105;47.964;7.982;2022-11-25T07:18:05;10.05;;;1.77;;
47365;SDS011;33105;47.964;7.982;2022-11-25T07:24:11;5.00;;;1.90;;
47365;SDS011;33105;47.964;7.982;2022-11-25T07:27:14;16.30;;;2.75;;
47365;SDS011;33105;47.964;7.982;2022-11-25T07:30:15;9.35;;;3.17;;
47365;SDS011;33105;47.964;7.982;2022-11-25T07:33:17;7.78;;;2.00;;
47365;SDS011;33105;47.964;7.982;2022-11-25T07:36:18;6.10;;;2.17;;
47365;SDS011;33105;47.964;7.982;2022-11-25T07:39:20;7.18;;;2.15;;
47365;SDS011;33105;47.964;7.982;2022-11-25T07:42:23;7.10;;;2.58;;
47365;SDS011;33105;47.964;7.982;2022-11-25T07:45:25;6.03;;;2.17;;
47365;SDS011;33105;47.964;7.982;2022-11-25T07:48:40;8.90;;;3.03;;
47365;SDS011;33105;47.964;7.982;2022-11-25T07:51:43;7.57;;;2.67;;
47365;SDS011;33105;47.964;7.982;2022-11-25T07:54:49;8.45;;;2.13;;
47365;SDS011;33105;47.964;7.982;2022-11-25T07:57:50;7.45;;;2.03;;
47365;SDS011;33105;47.964;7.982;2022-11-25T08:00:52;8.93;;;2.45;;
47365;SDS011;33105;47.964;7.982;2022-11-25T08:03:54;8.10;;;2.90;;
47365;SDS011;33105;47.964;7.982;2022-11-25T08:06:55;14.85;;;2.40;;
47365;SDS011;33105;47.964;7.982;2022-11-25T08:09:57;6.68;;;1.50;;
47365;SDS011;33105;47.964;7.982;2022-11-25T08:12:58;9.27;;;2.70;;
47365;SDS011;33105;47.964;7.982;2022-11-25T08:15:59;13.43;;;3.40;;
47365;SDS011;33105;47.964;7.982;2022-11-25T08:19:02;9.00;;;2.70;;
47365;SDS011;33105;47.964;7.982;2022-11-25T08:22:06;12.45;;;2.65;;
47365;SDS011;33105;47.964;7.982;2022-11-25T08:25:08;6.50;;;2.47;;
47365;SDS011;33105;47.964;7.982;2022-11-25T08:28:16;8.18;;;2.13;;
47365;SDS011;33105;47.964;7.982;2022-11-25T08:31:34;7.93;;;1.85;;
47365;SDS011;33105;47.964;7.982;2022-11-25T08:34:46;6.43;;;1.88;;
47365;SDS011;33105;47.964;7.982;2022-11-25T08:37:47;6.20;;;1.42;;
47365;SDS011;33105;47.964;7.982;2022-11-25T08:40:48;4.72;;;1.38;;
47365;SDS011;33105;47.964;7.982;2022-11-25T08:43:50;8.02;;;1.48;;
47365;SDS011;33105;47.964;7.982;2022-11-25T08:46:52;5.28;;;1.50;;
47365;SDS011;33105;47.964;7.982;2022-11-25T08:49:53;4.70;;;1.50;;
47365;SDS011;33105;47.964;7.982;2022-11-25T08:52:55;8.20;;;1.60;;
47365;SDS011;33105;47.964;7.982;2022-11-25T08:55:57;4.68;;;1.63;;
47365;SDS011;33105;47.964;7.982;2022-11-25T08:58:58;4.53;;;1.40;;
47365;SDS011;33105;47.964;7.982;2022-11-25T09:02:00;4.18;;;1.20;;
47365;SDS011;33105;47.964;7.982;2022-11-25T09:05:02;4.22;;;1.48;;
47365;SDS011;33105;47.964;7.982;2022-11-25T09:08:04;9.80;;;4.10;;
47365;SDS011;33105;47.964;7.982;2022-11-25T09:11:06;23.83;;;11.65;;
47365;SDS011;33105;47.964;7.982;2022-11-25T09:14:08;14.65;;;4.90;;
47365;SDS011;33105;47.964;7.982;2022-11-25T09:17:10;8.88;;;1.70;;
47365;SDS011;33105;47.964;7.982;2022-11-25T09:20:12;8.35;;;1.85;;
47365;SDS011;33105;47.964;7.982;2022-11-25T09:23:14;5.38;;;1.58;;
47365;SDS011;33105;47.964;7.982;2022-11-25T09:26:22;6.20;;;1.83;;
47365;SDS011;33105;47.964;7.982;2022-11-25T09:29:27;8.02;;;1.77;;
47365;SDS011;33105;47.964;7.982;2022-11-25T09:32:30;7.50;;;2.05;;
47365;SDS011;33105;47.964;7.982;2022-11-25T09:35:31;4.38;;;1.30;;
47365;SDS011;33105;47.964;7.982;2022-11-25T09:38:34;4.97;;;1.20;;
47365;SDS011;33105;47.964;7.982;2022-11-25T09:45:24;6.17;;;2.07;;
47365;SDS011;33105;47.964;7.982;2022-11-25T09:52:18;5.40;;;1.70;;
47365;SDS011;33105;47.964;7.982;2022-11-25T09:55:43;3.10;;;0.95;;
47365;SDS011;33105;47.964;7.982;2022-11-25T09:58:50;5.75;;;1.25;;
47365;SDS011;33105;47.964;7.982;2022-11-25T10:01:58;5.05;;;1.30;;
47365;SDS011;33105;47.964;7.982;2022-11-25T10:05:15;3.92;;;1.02;;
47365;SDS011;33105;47.964;7.982;2022-11-25T10:08:37;4.68;;;1.80;;
47365;SDS011;33105;47.964;7.982;2022-11-25T10:15:04;2.13;;;0.98;;
47365;SDS011;33105;47.964;7.982;2022-11-25T10:18:24;1.60;;;0.70;;
47365;SDS011;33105;47.964;7.982;2022-11-25T10:21:34;2.05;;;1.05;;
47365;SDS011;33105;47.964;7.982;2022-11-25T10:24:39;3.33;;;0.70;;
47365;SDS011;33105;47.964;7.982;2022-11-25T10:34:19;2.47;;;0.82;;
47365;SDS011;33105;47.964;7.982;2022-11-25T10:37:32;2.35;;;0.57;;
47365;SDS011;33105;47.964;7.982;2022-11-25T10:40:43;3.13;;;0.75;;
47365;SDS011;33105;47.964;7.982;2022-11-25T10:43:48;1.35;;;0.70;;
47365;SDS011;33105;47.964;7.982;2022-11-25T10:46:54;1.00;;;0.45;;
47365;SDS011;33105;47.964;7.982;2022-11-25T10:53:15;1.50;;;0.40;;
47365;SDS011;33105;47.964;7.982;2022-11-25T10:56:27;4.88;;;0.50;;
47365;SDS011;33105;47.964;7.982;2022-11-25T10:59:31;3.05;;;0.60;;
47365;SDS011;33105;47.964;7.982;2022-11-25T11:02:37;1.23;;;0.60;;
47365;SDS011;33105;47.964;7.982;2022-11-25T11:05:44;1.00;;;0.60;;
47365;SDS011;33105;47.964;7.982;2022-11-25T11:08:51;0.77;;;0.47;;
47365;SDS011;33105;47.964;7.982;2022-11-25T11:11:54;0.85;;;0.35;;
47365;SDS011;33105;47.964;7.982;2022-11-25T11:15:21;0.82;;;0.20;;
47365;SDS011;33105;47.964;7.982;2022-11-25T11:21:48;1.42;;;0.52;;
47365;SDS011;33105;47.964;7.982;2022-11-25T11:25:03;2.20;;;0.40;;
47365;SDS011;33105;47.964;7.982;2022-11-25T11:31:47;1.83;;;0.60;;
47365;SDS011;33105;47.964;7.982;2022-11-25T11:35:02;1.30;;;0.45;;
47365;SDS011;33105;47.964;7.982;2022-11-25T11:38:37;1.65;;;0.40;;
47365;SDS011;33105;47.964;7.982;2022-11-25T11:41:59;1.75;;;0.70;;
47365;SDS011;33105;47.964;7.982;2022-11-25T11:48:28;3.25;;;1.70;;
47365;SDS011;33105;47.964;7.982;2022-11-25T11:54:52;1.67;;;0.90;;
47365;SDS011;33105;47.964;7.982;2022-11-25T11:58:07;6.85;;;2.80;;
47365;SDS011;33105;47.964;7.982;2022-11-25T12:01:35;6.20;;;2.10;;
47365;SDS011;33105;47.964;7.982;2022-11-25T12:11:21;7.82;;;3.28;;
47365;SDS011;33105;47.964;7.982;2022-11-25T12:14:44;3.38;;;1.40;;
47365;SDS011;33105;47.964;7.982;2022-11-25T12:18:00;5.95;;;1.27;;
47365;SDS011;33105;47.964;7.982;2022-11-25T12:21:12;3.00;;;1.00;;
47365;SDS011;33105;47.964;7.982;2022-11-25T12:24:37;3.40;;;1.05;;
47365;SDS011;33105;47.964;7.982;2022-11-25T12:27:52;2.97;;;1.40;;
47365;SDS011;33105;47.964;7.982;2022-11-25T12:34:12;5.18;;;1.30;;
47365;SDS011;33105;47.964;7.982;2022-11-25T12:44:35;3.22;;;1.27;;
47365;SDS011;33105;47.964;7.982;2022-11-25T12:47:46;3.92;;;1.40;;
47365;SDS011;33105;47.964;7.982;2022-11-25T12:57:42;6.47;;;2.25;;
47365;SDS011;33105;47.964;7.982;2022-11-25T13:04:40;5.57;;;2.80;;
47365;SDS011;33105;47.964;7.982;2022-11-25T13:08:06;6.20;;;2.25;;
47365;SDS011;33105;47.964;7.982;2022-11-25T13:15:18;6.35;;;3.08;;
47365;SDS011;33105;47.964;7.982;2022-11-25T13:18:23;4.53;;;2.78;;
47365;SDS011;33105;47.964;7.982;2022-11-25T13:21:29;7.22;;;3.85;;
47365;SDS011;33105;47.964;7.982;2022-11-25T13:24:32;6.88;;;3.42;;
47365;SDS011;33105;47.964;7.982;2022-11-25T13:30:40;5.57;;;3.33;;
47365;SDS011;33105;47.964;7.982;2022-11-25T13:36:46;1.95;;;1.50;;
47365;SDS011;33105;47.964;7.982;2022-11-25T13:39:48;3.28;;;1.60;;
47365;SDS011;33105;47.964;7.982;2022-11-25T13:43:23;3.33;;;1.27;;
47365;SDS011;33105;47.964;7.982;2022-11-25T13:46:35;3.80;;;1.67;;
47365;SDS011;33105;47.964;7.982;2022-11-25T13:56:13;4.55;;;1.92;;
47365;SDS011;33105;47.964;7.982;2022-11-25T14:05:35;3.92;;;1.80;;
47365;SDS011;33105;47.964;7.982;2022-11-25T14:08:53;4.53;;;1.90;;
47365;SDS011;33105;47.964;7.982;2022-11-25T14:18:40;3.40;;;1.90;;
47365;SDS011;33105;47.964;7.982;2022-11-25T14:22:02;6.63;;;2.55;;
47365;SDS011;33105;47.964;7.982;2022-11-25T14:25:23;4.72;;;2.35;;
47365;SDS011;33105;47.964;7.982;2022-11-25T14:31:54;4.40;;;2.47;;
47365;SDS011;33105;47.964;7.982;2022-11-25T14:35:18;7.27;;;2.87;;
47365;SDS011;33105;47.964;7.982;2022-11-25T14:38:24;5.35;;;2.53;;
47365;SDS011;33105;47.964;7.982;2022-11-25T14:41:51;5.63;;;2.40;;
47365;SDS011;33105;47.964;7.982;2022-11-25T14:45:00;5.78;;;2.03;;
47365;SDS011;33105;47.964;7.982;2022-11-25T14:48:12;3.45;;;2.10;;
47365;SDS011;33105;47.964;7.982;2022-11-25T14:51:15;3.60;;;2.00;;
47365;SDS011;33105;47.964;7.982;2022-11-25T14:54:20;2.97;;;1.63;;
47365;SDS011;33105;47.964;7.982;2022-11-25T14:57:26;4.93;;;1.88;;
47365;SDS011;33105;47.964;7.982;2022-11-25T15:00:33;7.20;;;2.85;;
47365;SDS011;33105;47.964;7.982;2022-11-25T15:06:44;5.32;;;2.75;;
47365;SDS011;33105;47.964;7.982;2022-11-25T15:09:54;5.40;;;3.03;;
47365;SDS011;33105;47.964;7.982;2022-11-25T15:12:55;10.25;;;3.60;;
47365;SDS011;33105;47.964;7.982;2022-11-25T15:16:20;6.43;;;2.13;;
47365;SDS011;33105;47.964;7.982;2022-11-25T15:19:26;9.88;;;2.80;;
47365;SDS011;33105;47.964;7.982;2022-11-25T15:22:34;4.72;;;2.63;;
47365;SDS011;33105;47.964;7.982;2022-11-25T15:25:35;8.68;;;2.50;;
47365;SDS011;33105;47.964;7.982;2022-11-25T15:28:53;5.60;;;1.85;;
47365;SDS011;33105;47.964;7.982;2022-11-25T15:31:57;5.75;;;1.50;;
47365;SDS011;33105;47.964;7.982;2022-11-25T15:35:00;7.72;;;2.10;;
47365;SDS011;33105;47.964;7.982;2022-11-25T15:38:18;6.28;;;2.38;;
47365;SDS011;33105;47.964;7.982;2022-11-25T15:41:35;8.15;;;3.20;;
47365;SDS011;33105;47.964;7.982;2022-11-25T15:44:38;10.48;;;4.25;;
47365;SDS011;33105;47.964;7.982;2022-11-25T15:47:46;9.57;;;2.70;;
47365;SDS011;33105;47.964;7.982;2022-11-25T15:50:47;13.07;;;6.18;;
47365;SDS011;33105;47.964;7.982;2022-11-25T15:53:53;11.05;;;2.20;;
47365;SDS011;33105;47.964;7.982;2022-11-25T16:00:33;3.95;;;1.50;;
47365;SDS011;33105;47.964;7.982;2022-11-25T16:03:36;5.78;;;2.40;;
47365;SDS011;33105;47.964;7.982;2022-11-25T16:06:50;7.88;;;2.42;;
47365;SDS011;33105;47.964;7.982;2022-11-25T16:09:58;7.25;;;2.20;;
47365;SDS011;33105;47.964;7.982;2022-11-25T16:16:21;7.50;;;2.70;;
47365;SDS011;33105;47.964;7.982;2022-11-25T16:19:25;6.30;;;2.03;;
47365;SDS011;33105;47.964;7.982;2022-11-25T16:22:39;7.32;;;1.63;;
47365;SDS011;33105;47.964;7.982;2022-11-25T16:25:46;6.28;;;1.60;;
47365;SDS011;33105;47.964;7.982;2022-11-25T16:28:55;4.40;;;1.65;;
47365;SDS011;33105;47.964;7.982;2022-11-25T16:31:59;5.88;;;1.30;;
47365;SDS011;33105;47.964;7.982;2022-11-25T16:35:14;5.05;;;1.50;;
47365;SDS011;33105;47.964;7.982;2022-11-25T16:38:19;5.65;;;1.65;;
47365;SDS011;33105;47.964;7.982;2022-11-25T16:41:21;6.35;;;1.95;;
47365;SDS011;33105;47.964;7.982;2022-11-25T16:44:25;6.35;;;1.77;;
47365;SDS011;33105;47.964;7.982;2022-11-25T16:47:28;3.58;;;1.73;;
47365;SDS011;33105;47.964;7.982;2022-11-25T16:50:30;5.53;;;1.63;;
47365;SDS011;33105;47.964;7.982;2022-11-25T16:53:32;9.27;;;2.10;;
47365;SDS011;33105;47.964;7.982;2022-11-25T16:56:35;6.10;;;1.65;;
47365;SDS011;33105;47.964;7.982;2022-11-25T16:59:41;7.63;;;2.10;;
47365;SDS011;33105;47.964;7.982;2022-11-25T17:02:44;4.55;;;1.75;;
47365;SDS011;33105;47.964;7.982;2022-11-25T17:05:46;3.97;;;1.92;;
47365;SDS011;33105;47.964;7.982;2022-11-25T17:08:48;7.25;;;2.53;;
47365;SDS011;33105;47.964;7.982;2022-11-25T17:11:52;5.22;;;2.63;;
47365;SDS011;33105;47.964;7.982;2022-11-25T17:14:55;12.70;;;5.63;;
47365;SDS011;33105;47.964;7.982;2022-11-25T17:18:02;11.05;;;6.03;;
47365;SDS011;33105;47.964;7.982;2022-11-25T17:21:10;8.30;;;3.78;;
47365;SDS011;33105;47.964;7.982;2022-11-25T17:24:20;10.18;;;3.40;;
47365;SDS011;33105;47.964;7.982;2022-11-25T17:27:28;8.05;;;3.65;;
47365;SDS011;33105;47.964;7.982;2022-11-25T17:30:33;8.10;;;4.13;;
47365;SDS011;33105;47.964;7.982;2022-11-25T17:33:36;12.02;;;4.97;;
47365;SDS011;33105;47.964;7.982;2022-11-25T17:36:38;17.05;;;7.18;;
47365;SDS011;33105;47.964;7.982;2022-11-25T17:39:39;10.60;;;6.65;;
47365;SDS011;33105;47.964;7.982;2022-11-25T17:42:41;13.00;;;5.75;;
47365;SDS011;33105;47.964;7.982;2022-11-25T17:45:44;11.88;;;4.68;;
47365;SDS011;33105;47.964;7.982;2022-11-25T17:48:46;10.15;;;4.75;;
47365;SDS011;33105;47.964;7.982;2022-11-25T17:51:48;7.25;;;3.75;;
47365;SDS011;33105;47.964;7.982;2022-11-25T17:54:51;11.95;;;4.43;;
47365;SDS011;33105;47.964;7.982;2022-11-25T17:57:53;12.68;;;4.50;;
47365;SDS011;33105;47.964;7.982;2022-11-25T18:00:55;10.75;;;4.07;;
47365;SDS011;33105;47.964;7.982;2022-11-25T18:03:56;14.60;;;6.20;;
47365;SDS011;33105;47.964;7.982;2022-11-25T18:06:58;12.50;;;4.28;;
47365;SDS011;33105;47.964;7.982;2022-11-25T18:10:01;10.75;;;4.35;;
47365;SDS011;33105;47.964;7.982;2022-11-25T18:13:04;13.18;;;4.65;;
47365;SDS011;33105;47.964;7.982;2022-11-25T18:16:06;19.35;;;4.20;;
47365;SDS011;33105;47.964;7.982;2022-11-25T18:19:12;16.85;;;5.70;;
47365;SDS011;33105;47.964;7.982;2022-11-25T18:22:15;9.43;;;5.13;;
47365;SDS011;33105;47.964;7.982;2022-11-25T18:25:18;12.80;;;4.88;;
47365;SDS011;33105;47.964;7.982;2022-11-25T18:28:23;26.38;;;12.05;;
47365;SDS011;33105;47.964;7.982;2022-11-25T18:31:27;11.90;;;6.13;;
47365;SDS011;33105;47.964;7.982;2022-11-25T18:34:29;12.13;;;6.53;;
47365;SDS011;33105;47.964;7.982;2022-11-25T18:37:31;14.52;;;6.30;;
47365;SDS011;33105;47.964;7.982;2022-11-25T18:40:35;10.20;;;5.80;;
47365;SDS011;33105;47.964;7.982;2022-11-25T18:43:40;13.30;;;5.38;;
47365;SDS011;33105;47.964;7.982;2022-11-25T18:46:43;11.77;;;5.38;;
47365;SDS011;33105;47.964;7.982;2022-11-25T18:49:45;12.88;;;5.35;;
47365;SDS011;33105;47.964;7.982;2022-11-25T18:52:47;11.77;;;5.15;;
47365;SDS011;33105;47.964;7.982;2022-11-25T18:55:51;18.85;;;6.30;;
47365;SDS011;33105;47.964;7.982;2022-11-25T18:58:52;14.98;;;6.00;;
47365;SDS011;33105;47.964;7.982;2022-11-25T19:01:54;13.18;;;6.50;;
47365;SDS011;33105;47.964;7.982;2022-11-25T19:04:56;13.38;;;6.50;;
47365;SDS011;33105;47.964;7.982;2022-11-25T19:07:59;14.18;;;6.95;;
47365;SDS011;33105;47.964;7.982;2022-11-25T19:11:01;14.18;;;5.88;;
47365;SDS011;33105;47.964;7.982;2022-11-25T19:14:05;12.98;;;5.32;;
47365;SDS011;33105;47.964;7.982;2022-11-25T19:17:13;11.70;;;4.80;;
47365;SDS011;33105;47.964;7.982;2022-11-25T19:20:22;11.80;;;5.45;;
47365;SDS011;33105;47.964;7.982;2022-11-25T19:23:26;13.07;;;6.13;;
47365;SDS011;33105;47.964;7.982;2022-11-25T19:26:29;20.75;;;7.38;;
47365;SDS011;33105;47.964;7.982;2022-11-25T19:29:39;16.70;;;6.55;;
47365;SDS011;33105;47.964;7.982;2022-11-25T19:32:41;15.73;;;6.63;;
47365;SDS011;33105;47.964;7.982;2022-11-25T19:35:46;10.70;;;6.00;;
47365;SDS011;33105;47.964;7.982;2022-11-25T19:38:48;15.00;;;6.18;;
47365;SDS011;33105;47.964;7.982;2022-11-25T19:41:53;15.82;;;6.32;;
47365;SDS011;33105;47.964;7.982;2022-11-25T19:44:55;12.55;;;5.32;;
47365;SDS011;33105;47.964;7.982;2022-11-25T19:47:58;13.27;;;5.70;;
47365;SDS011;33105;47.964;7.982;2022-11-25T19:51:04;24.30;;;8.68;;
47365;SDS011;33105;47.964;7.982;2022-11-25T19:54:13;26.63;;;11.88;;
47365;SDS011;33105;47.964;7.982;2022-11-25T19:57:20;21.50;;;10.02;;
47365;SDS011;33105;47.964;7.982;2022-11-25T20:00:24;17.50;;;8.48;;
47365;SDS011;33105;47.964;7.982;2022-11-25T20:03:27;14.70;;;6.75;;
47365;SDS011;33105;47.964;7.982;2022-11-25T20:06:31;17.83;;;6.90;;
47365;SDS011;33105;47.964;7.982;2022-11-25T20:09:33;7.22;;;4.97;;
47365;SDS011;33105;47.964;7.982;2022-11-25T20:12:35;6.13;;;3.10;;
47365;SDS011;33105;47.964;7.982;2022-11-25T20:15:37;17.45;;;6.38;;
47365;SDS011;33105;47.964;7.982;2022-11-25T20:18:40;14.68;;;5.30;;
47365;SDS011;33105;47.964;7.982;2022-11-25T20:21:44;19.23;;;5.90;;
47365;SDS011;33105;47.964;7.982;2022-11-25T20:24:51;9.02;;;5.40;;
47365;SDS011;33105;47.964;7.982;2022-11-25T20:27:53;12.32;;;5.60;;
47365;SDS011;33105;47.964;7.982;2022-11-25T20:30:55;12.93;;;5.60;;
47365;SDS011;33105;47.964;7.982;2022-11-25T20:34:00;15.68;;;7.28;;
47365;SDS011;33105;47.964;7.982;2022-11-25T20:37:08;15.07;;;6.22;;
47365;SDS011;33105;47.964;7.982;2022-11-25T20:40:17;12.57;;;5.82;;
47365;SDS011;33105;47.964;7.982;2022-11-25T20:43:39;12.27;;;5.72;;
47365;SDS011;33105;47.964;7.982;2022-11-25T20:46:43;7.90;;;5.15;;
47365;SDS011;33105;47.964;7.982;2022-11-25T20:49:45;11.95;;;5.72;;
47365;SDS011;33105;47.964;7.982;2022-11-25T20:52:48;12.90;;;7.78;;
47365;SDS011;33105;47.964;7.982;2022-11-25T20:55:52;17.83;;;11.43;;
47365;SDS011;33105;47.964;7.982;2022-11-25T20:58:54;17.77;;;9.43;;
47365;SDS011;33105;47.964;7.982;2022-11-25T21:01:55;16.95;;;7.25;;
47365;SDS011;33105;47.964;7.982;2022-11-25T21:04:59;13.20;;;5.93;;
47365;SDS011;33105;47.964;7.982;2022-11-25T21:08:01;19.60;;;6.15;;
47365;SDS011;33105;47.964;7.982;2022-11-25T21:11:03;12.65;;;5.97;;
47365;SDS011;33105;47.964;7.982;2022-11-25T21:14:13;13.18;;;5.57;;
47365;SDS011;33105;47.964;7.982;2022-11-25T21:17:17;9.70;;;5.63;;
47365;SDS011;33105;47.964;7.982;2022-11-25T21:20:19;10.07;;;6.55;;
47365;SDS011;33105;47.964;7.982;2022-11-25T21:23:26;14.93;;;8.82;;
47365;SDS011;33105;47.964;7.982;2022-11-25T21:26:30;36.30;;;19.67;;
47365;SDS011;33105;47.964;7.982;2022-11-25T21:29:31;30.20;;;15.52;;
47365;SDS011;33105;47.964;7.982;2022-11-25T21:32:33;19.63;;;12.20;;
47365;SDS011;33105;47.964;7.982;2022-11-25T21:35:35;17.52;;;10.85;;
47365;SDS011;33105;47.964;7.982;2022-11-25T21:38:41;19.05;;;10.02;;
47365;SDS011;33105;47.964;7.982;2022-11-25T21:41:43;17.67;;;8.45;;
47365;SDS011;33105;47.964;7.982;2022-11-25T21:44:45;11.88;;;7.40;;
47365;SDS011;33105;47.964;7.982;2022-11-25T21:47:47;16.08;;;9.35;;
47365;SDS011;33105;47.964;7.982;2022-11-25T21:50:49;15.25;;;7.90;;
47365;SDS011;33105;47.964;7.982;2022-11-25T21:53:52;10.55;;;6.35;;
47365;SDS011;33105;47.964;7.982;2022-11-25T21:56:53;12.85;;;5.65;;
47365;SDS011;33105;47.964;7.982;2022-11-25T21:59:54;10.70;;;4.55;;
47365;SDS011;33105;47.964;7.982;2022-11-25T22:02:56;11.23;;;4.47;;
47365;SDS011;33105;47.964;7.982;2022-11-25T22:05:57;11.65;;;4.30;;
47365;SDS011;33105;47.964;7.982;2022-11-25T22:08:58;9.82;;;4.38;;
47365;SDS011;33105;47.964;7.982;2022-11-25T22:11:59;9.95;;;3.75;;
47365;SDS011;33105;47.964;7.982;2022-11-25T22:15:00;11.15;;;3.78;;
47365;SDS011;33105;47.964;7.982;2022-11-25T22:18:02;7.97;;;4.30;;
47365;SDS011;33105;47.964;7.982;2022-11-25T22:21:03;9.73;;;4.90;;
47365;SDS011;33105;47.964;7.982;2022-11-25T22:24:11;9.85;;;4.55;;
47365;SDS011;33105;47.964;7.982;2022-11-25T22:27:19;9.30;;;3.90;;
47365;SDS011;33105;47.964;7.982;2022-11-25T22:30:22;10.70;;;3.20;;
47365;SDS011;33105;47.964;7.982;2022-11-25T22:33:28;15.18;;;4.60;;
47365;SDS011;33105;47.964;7.982;2022-11-25T22:36:32;11.68;;;2.97;;
47365;SDS011;33105;47.964;7.982;2022-11-25T22:39:33;13.02;;;5.13;;
47365;SDS011;33105;47.964;7.982;2022-11-25T22:42:35;15.93;;;3.40;;
47365;SDS011;33105;47.964;7.982;2022-11-25T22:45:36;12.13;;;2.78;;
47365;SDS011;33105;47.964;7.982;2022-11-25T22:48:38;16.10;;;3.30;;
47365;SDS011;33105;47.964;7.982;2022-11-25T22:51:39;8.20;;;2.40;;
47365;SDS011;33105;47.964;7.982;2022-11-25T22:54:40;12.65;;;2.78;;
47365;SDS011;33105;47.964;7.982;2022-11-25T22:57:41;12.63;;;2.38;;
47365;SDS011;33105;47.964;7.982;2022-11-25T23:00:44;12.13;;;2.85;;
47365;SDS011;33105;47.964;7.982;2022-11-25T23:03:47;9.48;;;3.80;;
47365;SDS011;33105;47.964;7.982;2022-11-25T23:06:48;12.60;;;3.63;;
47365;SDS011;33105;47.964;7.982;2022-11-25T23:09:50;9.10;;;3.65;;
47365;SDS011;33105;47.964;7.982;2022-11-25T23:12:52;8.95;;;2.75;;
47365;SDS011;33105;47.964;7.982;2022-11-25T23:15:55;13.65;;;2.55;;
47365;SDS011;33105;47.964;7.982;2022-11-25T23:18:58;6.70;;;2.40;;
47365;SDS011;33105;47.964;7.982;2022-11-25T23:22:00;11.00;;;2.75;;
47365;SDS011;33105;47.964;7.982;2022-11-25T23:25:01;12.98;;;2.25;;
47365;SDS011;33105;47.964;7.982;2022-11-25T23:28:02;11.23;;;3.17;;
47365;SDS011;33105;47.964;7.982;2022-11-25T23:31:04;9.50;;;2.78;;
47365;SDS011;33105;47.964;7.982;2022-11-25T23:34:06;10.70;;;3.28;;
47365;SDS011;33105;47.964;7.982;2022-11-25T23:37:08;7.93;;;2.78;;
47365;SDS011;33105;47.964;7.982;2022-11-25T23:40:15;11.27;;;2.75;;
47365;SDS011;33105;47.964;7.982;2022-11-25T23:43:39;12.82;;;3.28;;
